sensor_id;sensor_type;location;lat;lon;timestamp;temperature;humidity
4354;DHT22;11018;51.258;6.806;2023-10-19T00:00:37;12.30;93.70
4354;DHT22;11018;51.258;6.806;2023-10-19T00:03:06;12.30;94.70
4354;DHT22;11018;51.258;6.806;2023-10-19T00:05:35;12.40;92.20
4354;DHT22;11018;51.258;6.806;2023-10-19T00:08:02;12.40;92.40
4354;DHT22;11018;51.258;6.806;2023-10-19T00:10:31;12.40;92.40
4354;DHT22;11018;51.258;6.806;2023-10-19T00:13:01;12.40;91.90
4354;DHT22;11018;51.258;6.806;2023-10-19T00:15:32;12.40;93.50
4354;DHT22;11018;51.258;6.806;2023-10-19T00:17:59;12.40;94.20
4354;DHT22;11018;51.258;6.806;2023-10-19T00:20:34;12.40;95.00
4354;DHT22;11018;51.258;6.806;2023-10-19T00:23:16;12.40;96.10
4354;DHT22;11018;51.258;6.806;2023-10-19T00:25:50;12.40;96.60
4354;DHT22;11018;51.258;6.806;2023-10-19T00:28:19;12.50;95.80
4354;DHT22;11018;51.258;6.806;2023-10-19T00:30:45;12.50;96.50
4354;DHT22;11018;51.258;6.806;2023-10-19T00:33:12;12.50;98.00
4354;DHT22;11018;51.258;6.806;2023-10-19T00:35:46;12.50;99.30
4354;DHT22;11018;51.258;6.806;2023-10-19T00:38:30;12.50;99.30
4354;DHT22;11018;51.258;6.806;2023-10-19T00:40:59;12.40;99.90
4354;DHT22;11018;51.258;6.806;2023-10-19T00:43:30;12.50;99.90
4354;DHT22;11018;51.258;6.806;2023-10-19T00:46:00;12.40;99.90
4354;DHT22;11018;51.258;6.806;2023-10-19T00:48:28;12.50;99.90
4354;DHT22;11018;51.258;6.806;2023-10-19T00:50:55;12.50;99.90
4354;DHT22;11018;51.258;6.806;2023-10-19T00:53:34;12.50;99.90
4354;DHT22;11018;51.258;6.806;2023-10-19T00:56:01;12.60;99.90
4354;DHT22;11018;51.258;6.806;2023-10-19T00:58:30;12.60;99.30
4354;DHT22;11018;51.258;6.806;2023-10-19T01:00:56;12.60;99.90
4354;DHT22;11018;51.258;6.806;2023-10-19T01:03:26;12.60;99.90
4354;DHT22;11018;51.258;6.806;2023-10-19T01:05:57;12.60;99.90
4354;DHT22;11018;51.258;6.806;2023-10-19T01:08:23;12.60;99.90
4354;DHT22;11018;51.258;6.806;2023-10-19T01:10:51;12.60;99.90
4354;DHT22;11018;51.258;6.806;2023-10-19T01:13:18;12.60;99.90
4354;DHT22;11018;51.258;6.806;2023-10-19T01:15:52;12.60;99.90
4354;DHT22;11018;51.258;6.806;2023-10-19T01:18:18;12.60;99.90
4354;DHT22;11018;51.258;6.806;2023-10-19T01:20:45;12.60;99.90
4354;DHT22;11018;51.258;6.806;2023-10-19T01:23:16;12.60;99.90
4354;DHT22;11018;51.258;6.806;2023-10-19T01:25:55;12.50;99.90
4354;DHT22;11018;51.258;6.806;2023-10-19T01:28:21;12.40;99.90
4354;DHT22;11018;51.258;6.806;2023-10-19T01:30:53;12.50;99.90
4354;DHT22;11018;51.258;6.806;2023-10-19T01:33:20;12.60;99.90
4354;DHT22;11018;51.258;6.806;2023-10-19T01:35:45;12.60;99.90
4354;DHT22;11018;51.258;6.806;2023-10-19T01:38:30;12.60;99.90
4354;DHT22;11018;51.258;6.806;2023-10-19T01:40:57;12.70;99.90
4354;DHT22;11018;51.258;6.806;2023-10-19T01:43:28;12.70;99.90
4354;DHT22;11018;51.258;6.806;2023-10-19T01:46:00;12.70;99.90
4354;DHT22;11018;51.258;6.806;2023-10-19T01:48:31;12.70;99.90
4354;DHT22;11018;51.258;6.806;2023-10-19T01:51:03;12.70;99.90
4354;DHT22;11018;51.258;6.806;2023-10-19T01:53:32;12.70;99.90
4354;DHT22;11018;51.258;6.806;2023-10-19T01:55:58;12.70;99.90
4354;DHT22;11018;51.258;6.806;2023-10-19T01:58:25;12.70;99.90
4354;DHT22;11018;51.258;6.806;2023-10-19T02:00:51;12.80;99.90
4354;DHT22;11018;51.258;6.806;2023-10-19T02:03:21;12.80;99.90
4354;DHT22;11018;51.258;6.806;2023-10-19T02:05:57;12.70;99.90
4354;DHT22;11018;51.258;6.806;2023-10-19T02:08:27;12.80;99.90
4354;DHT22;11018;51.258;6.806;2023-10-19T02:10:53;12.80;99.90
4354;DHT22;11018;51.258;6.806;2023-10-19T02:13:22;12.80;99.90
4354;DHT22;11018;51.258;6.806;2023-10-19T02:15:48;12.80;99.90
4354;DHT22;11018;51.258;6.806;2023-10-19T02:18:14;12.90;99.90
4354;DHT22;11018;51.258;6.806;2023-10-19T02:20:40;12.80;99.90
4354;DHT22;11018;51.258;6.806;2023-10-19T02:23:10;12.90;99.90
4354;DHT22;11018;51.258;6.806;2023-10-19T02:25:37;13.00;99.90
4354;DHT22;11018;51.258;6.806;2023-10-19T02:28:04;13.00;99.90
4354;DHT22;11018;51.258;6.806;2023-10-19T02:30:32;13.00;99.90
4354;DHT22;11018;51.258;6.806;2023-10-19T02:32:59;13.00;99.90
4354;DHT22;11018;51.258;6.806;2023-10-19T02:35:26;13.00;99.90
4354;DHT22;11018;51.258;6.806;2023-10-19T02:37:53;13.00;99.90
4354;DHT22;11018;51.258;6.806;2023-10-19T02:40:18;13.10;99.90
4354;DHT22;11018;51.258;6.806;2023-10-19T02:42:50;13.10;99.90
4354;DHT22;11018;51.258;6.806;2023-10-19T02:45:19;13.10;99.90
4354;DHT22;11018;51.258;6.806;2023-10-19T02:47:45;13.20;99.90
4354;DHT22;11018;51.258;6.806;2023-10-19T02:50:12;13.10;99.90
4354;DHT22;11018;51.258;6.806;2023-10-19T02:52:48;13.10;99.90
4354;DHT22;11018;51.258;6.806;2023-10-19T02:55:14;13.10;99.90
4354;DHT22;11018;51.258;6.806;2023-10-19T02:57:43;13.20;99.90
4354;DHT22;11018;51.258;6.806;2023-10-19T03:00:12;13.30;99.90
4354;DHT22;11018;51.258;6.806;2023-10-19T03:02:45;13.30;99.90
4354;DHT22;11018;51.258;6.806;2023-10-19T03:05:10;13.20;99.90
4354;DHT22;11018;51.258;6.806;2023-10-19T03:07:45;13.20;99.90
4354;DHT22;11018;51.258;6.806;2023-10-19T03:10:12;13.30;99.90
4354;DHT22;11018;51.258;6.806;2023-10-19T03:12:50;13.20;99.90
4354;DHT22;11018;51.258;6.806;2023-10-19T03:15:16;13.30;99.90
4354;DHT22;11018;51.258;6.806;2023-10-19T03:17:42;13.30;99.90
4354;DHT22;11018;51.258;6.806;2023-10-19T03:20:08;13.30;99.90
4354;DHT22;11018;51.258;6.806;2023-10-19T03:22:36;13.30;99.90
4354;DHT22;11018;51.258;6.806;2023-10-19T03:25:06;13.40;99.90
4354;DHT22;11018;51.258;6.806;2023-10-19T03:27:51;13.40;99.90
4354;DHT22;11018;51.258;6.806;2023-10-19T03:30:16;13.30;99.90
4354;DHT22;11018;51.258;6.806;2023-10-19T03:32:43;13.30;99.90
4354;DHT22;11018;51.258;6.806;2023-10-19T03:35:09;13.30;99.90
4354;DHT22;11018;51.258;6.806;2023-10-19T03:37:40;13.20;99.90
4354;DHT22;11018;51.258;6.806;2023-10-19T03:40:07;13.30;99.90
4354;DHT22;11018;51.258;6.806;2023-10-19T03:42:34;13.30;99.90
4354;DHT22;11018;51.258;6.806;2023-10-19T03:45:07;13.30;99.90
4354;DHT22;11018;51.258;6.806;2023-10-19T03:47:39;13.30;99.90
4354;DHT22;11018;51.258;6.806;2023-10-19T03:50:09;13.30;99.90
4354;DHT22;11018;51.258;6.806;2023-10-19T03:52:39;13.40;99.90
4354;DHT22;11018;51.258;6.806;2023-10-19T03:55:06;13.30;99.90
4354;DHT22;11018;51.258;6.806;2023-10-19T03:57:43;13.40;99.90
4354;DHT22;11018;51.258;6.806;2023-10-19T04:00:16;13.40;99.90
4354;DHT22;11018;51.258;6.806;2023-10-19T04:02:45;13.50;99.90
4354;DHT22;11018;51.258;6.806;2023-10-19T04:05:12;13.50;99.90
4354;DHT22;11018;51.258;6.806;2023-10-19T04:07:41;13.40;99.90
4354;DHT22;11018;51.258;6.806;2023-10-19T04:10:07;13.50;99.90
4354;DHT22;11018;51.258;6.806;2023-10-19T04:12:37;13.50;99.90
4354;DHT22;11018;51.258;6.806;2023-10-19T04:15:06;13.60;99.90
4354;DHT22;11018;51.258;6.806;2023-10-19T04:17:45;13.50;99.90
4354;DHT22;11018;51.258;6.806;2023-10-19T04:20:12;13.50;99.90
4354;DHT22;11018;51.258;6.806;2023-10-19T04:23:00;13.60;99.90
4354;DHT22;11018;51.258;6.806;2023-10-19T04:25:32;13.60;99.90
4354;DHT22;11018;51.258;6.806;2023-10-19T04:27:57;13.60;99.90
4354;DHT22;11018;51.258;6.806;2023-10-19T04:30:23;13.70;99.90
4354;DHT22;11018;51.258;6.806;2023-10-19T04:32:52;13.70;99.90
4354;DHT22;11018;51.258;6.806;2023-10-19T04:35:22;13.70;99.90
4354;DHT22;11018;51.258;6.806;2023-10-19T04:37:52;13.70;99.90
4354;DHT22;11018;51.258;6.806;2023-10-19T04:40:22;13.70;99.90
4354;DHT22;11018;51.258;6.806;2023-10-19T04:42:49;13.70;99.90
4354;DHT22;11018;51.258;6.806;2023-10-19T04:45:15;13.70;99.90
4354;DHT22;11018;51.258;6.806;2023-10-19T04:47:41;13.70;99.90
4354;DHT22;11018;51.258;6.806;2023-10-19T04:50:07;13.60;99.90
4354;DHT22;11018;51.258;6.806;2023-10-19T04:52:33;13.60;99.90
4354;DHT22;11018;51.258;6.806;2023-10-19T04:54:59;13.60;99.90
4354;DHT22;11018;51.258;6.806;2023-10-19T04:57:25;13.60;99.90
4354;DHT22;11018;51.258;6.806;2023-10-19T04:59:53;13.60;99.90
4354;DHT22;11018;51.258;6.806;2023-10-19T05:02:19;13.70;99.90
4354;DHT22;11018;51.258;6.806;2023-10-19T05:04:44;13.70;99.90
4354;DHT22;11018;51.258;6.806;2023-10-19T05:07:11;13.60;99.90
4354;DHT22;11018;51.258;6.806;2023-10-19T05:09:43;13.60;99.90
4354;DHT22;11018;51.258;6.806;2023-10-19T05:12:08;13.60;99.90
4354;DHT22;11018;51.258;6.806;2023-10-19T05:14:42;13.60;99.90
4354;DHT22;11018;51.258;6.806;2023-10-19T05:17:08;13.60;99.90
4354;DHT22;11018;51.258;6.806;2023-10-19T05:19:35;13.60;99.90
4354;DHT22;11018;51.258;6.806;2023-10-19T05:22:02;13.60;99.90
4354;DHT22;11018;51.258;6.806;2023-10-19T05:24:28;13.60;99.90
4354;DHT22;11018;51.258;6.806;2023-10-19T05:26:55;13.60;99.90
4354;DHT22;11018;51.258;6.806;2023-10-19T05:29:21;13.70;99.90
4354;DHT22;11018;51.258;6.806;2023-10-19T05:31:47;13.70;99.90
4354;DHT22;11018;51.258;6.806;2023-10-19T05:34:12;13.70;99.90
4354;DHT22;11018;51.258;6.806;2023-10-19T05:36:38;13.70;99.90
4354;DHT22;11018;51.258;6.806;2023-10-19T05:39:05;13.70;99.90
4354;DHT22;11018;51.258;6.806;2023-10-19T05:41:33;13.60;99.90
4354;DHT22;11018;51.258;6.806;2023-10-19T05:43:59;13.60;99.90
4354;DHT22;11018;51.258;6.806;2023-10-19T05:46:25;13.50;99.90
4354;DHT22;11018;51.258;6.806;2023-10-19T05:48:51;13.50;99.90
4354;DHT22;11018;51.258;6.806;2023-10-19T05:51:18;13.50;99.90
4354;DHT22;11018;51.258;6.806;2023-10-19T05:53:43;13.50;99.90
4354;DHT22;11018;51.258;6.806;2023-10-19T05:56:13;13.50;99.90
4354;DHT22;11018;51.258;6.806;2023-10-19T05:58:38;13.50;99.90
4354;DHT22;11018;51.258;6.806;2023-10-19T06:01:04;13.60;99.90
4354;DHT22;11018;51.258;6.806;2023-10-19T06:03:30;13.60;99.90
4354;DHT22;11018;51.258;6.806;2023-10-19T06:05:56;13.70;99.90
4354;DHT22;11018;51.258;6.806;2023-10-19T06:08:25;13.60;99.90
4354;DHT22;11018;51.258;6.806;2023-10-19T06:10:51;13.60;99.90
4354;DHT22;11018;51.258;6.806;2023-10-19T06:13:17;13.70;99.90
4354;DHT22;11018;51.258;6.806;2023-10-19T06:15:43;13.70;99.90
4354;DHT22;11018;51.258;6.806;2023-10-19T06:18:09;13.80;99.90
4354;DHT22;11018;51.258;6.806;2023-10-19T06:20:36;13.80;99.90
4354;DHT22;11018;51.258;6.806;2023-10-19T06:23:01;13.90;99.90
4354;DHT22;11018;51.258;6.806;2023-10-19T06:25:32;13.90;99.90
4354;DHT22;11018;51.258;6.806;2023-10-19T06:27:58;13.90;99.90
4354;DHT22;11018;51.258;6.806;2023-10-19T06:30:25;13.90;99.90
4354;DHT22;11018;51.258;6.806;2023-10-19T06:32:56;13.90;99.90
4354;DHT22;11018;51.258;6.806;2023-10-19T06:35:23;13.90;99.90
4354;DHT22;11018;51.258;6.806;2023-10-19T06:37:49;13.90;99.90
4354;DHT22;11018;51.258;6.806;2023-10-19T06:40:15;13.90;99.90
4354;DHT22;11018;51.258;6.806;2023-10-19T06:42:45;13.90;99.90
4354;DHT22;11018;51.258;6.806;2023-10-19T06:45:12;14.00;99.90
4354;DHT22;11018;51.258;6.806;2023-10-19T06:47:45;14.00;99.90
4354;DHT22;11018;51.258;6.806;2023-10-19T06:50:20;14.00;99.90
4354;DHT22;11018;51.258;6.806;2023-10-19T06:52:46;14.00;99.90
4354;DHT22;11018;51.258;6.806;2023-10-19T06:55:13;14.10;99.90
4354;DHT22;11018;51.258;6.806;2023-10-19T06:57:46;14.10;99.90
4354;DHT22;11018;51.258;6.806;2023-10-19T07:00:14;14.20;99.90
4354;DHT22;11018;51.258;6.806;2023-10-19T07:02:42;14.20;99.90
4354;DHT22;11018;51.258;6.806;2023-10-19T07:05:09;14.20;99.90
4354;DHT22;11018;51.258;6.806;2023-10-19T07:07:41;14.20;99.90
4354;DHT22;11018;51.258;6.806;2023-10-19T07:10:08;14.30;99.90
4354;DHT22;11018;51.258;6.806;2023-10-19T07:12:35;14.30;99.90
4354;DHT22;11018;51.258;6.806;2023-10-19T07:15:03;14.30;99.90
4354;DHT22;11018;51.258;6.806;2023-10-19T07:17:28;14.40;99.90
4354;DHT22;11018;51.258;6.806;2023-10-19T07:19:54;14.40;98.40
4354;DHT22;11018;51.258;6.806;2023-10-19T07:22:19;14.40;98.50
4354;DHT22;11018;51.258;6.806;2023-10-19T07:24:48;14.40;98.40
4354;DHT22;11018;51.258;6.806;2023-10-19T07:27:14;14.50;97.60
4354;DHT22;11018;51.258;6.806;2023-10-19T07:29:44;14.50;98.00
4354;DHT22;11018;51.258;6.806;2023-10-19T07:32:10;14.50;96.40
4354;DHT22;11018;51.258;6.806;2023-10-19T07:34:39;14.60;96.20
4354;DHT22;11018;51.258;6.806;2023-10-19T07:37:04;14.60;95.40
4354;DHT22;11018;51.258;6.806;2023-10-19T07:39:30;14.70;94.50
4354;DHT22;11018;51.258;6.806;2023-10-19T07:41:59;14.70;93.80
4354;DHT22;11018;51.258;6.806;2023-10-19T07:44:25;14.80;92.50
4354;DHT22;11018;51.258;6.806;2023-10-19T07:46:51;14.80;91.80
4354;DHT22;11018;51.258;6.806;2023-10-19T07:49:17;14.90;89.80
4354;DHT22;11018;51.258;6.806;2023-10-19T07:51:49;15.00;89.40
4354;DHT22;11018;51.258;6.806;2023-10-19T07:54:16;15.10;88.90
4354;DHT22;11018;51.258;6.806;2023-10-19T07:56:42;15.10;88.60
4354;DHT22;11018;51.258;6.806;2023-10-19T07:59:07;15.20;88.90
4354;DHT22;11018;51.258;6.806;2023-10-19T08:01:33;15.20;87.60
4354;DHT22;11018;51.258;6.806;2023-10-19T08:03:58;15.20;87.60
4354;DHT22;11018;51.258;6.806;2023-10-19T08:06:24;15.30;86.20
4354;DHT22;11018;51.258;6.806;2023-10-19T08:08:50;15.40;84.70
4354;DHT22;11018;51.258;6.806;2023-10-19T08:11:16;15.40;84.20
4354;DHT22;11018;51.258;6.806;2023-10-19T08:13:42;15.50;82.60
4354;DHT22;11018;51.258;6.806;2023-10-19T08:16:08;15.70;81.30
4354;DHT22;11018;51.258;6.806;2023-10-19T08:21:03;16.10;78.40
4354;DHT22;11018;51.258;6.806;2023-10-19T08:23:29;16.50;73.30
4354;DHT22;11018;51.258;6.806;2023-10-19T08:25:57;16.80;70.10
4354;DHT22;11018;51.258;6.806;2023-10-19T08:28:23;17.20;66.50
4354;DHT22;11018;51.258;6.806;2023-10-19T08:30:49;17.50;62.40
4354;DHT22;11018;51.258;6.806;2023-10-19T08:33:26;17.90;58.40
4354;DHT22;11018;51.258;6.806;2023-10-19T08:35:56;18.00;56.70
4354;DHT22;11018;51.258;6.806;2023-10-19T08:38:25;18.00;55.40
4354;DHT22;11018;51.258;6.806;2023-10-19T08:40:51;18.10;54.40
4354;DHT22;11018;51.258;6.806;2023-10-19T08:43:18;18.00;55.80
4354;DHT22;11018;51.258;6.806;2023-10-19T08:45:44;17.90;56.90
4354;DHT22;11018;51.258;6.806;2023-10-19T08:48:10;17.80;57.20
4354;DHT22;11018;51.258;6.806;2023-10-19T08:50:37;17.70;58.30
4354;DHT22;11018;51.258;6.806;2023-10-19T08:53:04;17.60;59.60
4354;DHT22;11018;51.258;6.806;2023-10-19T08:55:31;17.70;59.70
4354;DHT22;11018;51.258;6.806;2023-10-19T08:57:56;17.90;58.10
4354;DHT22;11018;51.258;6.806;2023-10-19T09:00:25;18.20;55.70
4354;DHT22;11018;51.258;6.806;2023-10-19T09:02:52;18.50;54.70
4354;DHT22;11018;51.258;6.806;2023-10-19T09:05:19;18.70;52.40
4354;DHT22;11018;51.258;6.806;2023-10-19T09:07:48;18.60;51.90
4354;DHT22;11018;51.258;6.806;2023-10-19T09:10:23;18.60;51.70
4354;DHT22;11018;51.258;6.806;2023-10-19T09:13:03;18.60;52.00
4354;DHT22;11018;51.258;6.806;2023-10-19T09:15:30;18.50;52.80
4354;DHT22;11018;51.258;6.806;2023-10-19T09:17:58;18.40;53.60
4354;DHT22;11018;51.258;6.806;2023-10-19T09:20:24;18.50;52.90
4354;DHT22;11018;51.258;6.806;2023-10-19T09:22:56;18.50;52.00
4354;DHT22;11018;51.258;6.806;2023-10-19T09:25:23;18.40;53.20
4354;DHT22;11018;51.258;6.806;2023-10-19T09:27:49;18.60;51.60
4354;DHT22;11018;51.258;6.806;2023-10-19T09:30:15;18.60;50.60
4354;DHT22;11018;51.258;6.806;2023-10-19T09:32:47;18.40;52.20
4354;DHT22;11018;51.258;6.806;2023-10-19T09:35:14;18.30;52.00
4354;DHT22;11018;51.258;6.806;2023-10-19T09:37:42;18.20;52.80
4354;DHT22;11018;51.258;6.806;2023-10-19T09:40:09;18.00;54.80
4354;DHT22;11018;51.258;6.806;2023-10-19T09:42:43;17.90;55.20
4354;DHT22;11018;51.258;6.806;2023-10-19T09:45:12;17.90;56.10
4354;DHT22;11018;51.258;6.806;2023-10-19T09:47:41;17.80;56.00
4354;DHT22;11018;51.258;6.806;2023-10-19T09:50:10;17.60;57.40
4354;DHT22;11018;51.258;6.806;2023-10-19T09:52:37;17.60;57.70
4354;DHT22;11018;51.258;6.806;2023-10-19T09:55:26;17.60;58.50
4354;DHT22;11018;51.258;6.806;2023-10-19T10:00:30;18.00;56.60
4354;DHT22;11018;51.258;6.806;2023-10-19T10:02:57;18.40;55.40
4354;DHT22;11018;51.258;6.806;2023-10-19T10:10:50;18.80;48.70
4354;DHT22;11018;51.258;6.806;2023-10-19T10:15:58;19.00;47.90
4354;DHT22;11018;51.258;6.806;2023-10-19T10:18:30;19.10;47.00
4354;DHT22;11018;51.258;6.806;2023-10-19T10:21:12;19.20;46.20
4354;DHT22;11018;51.258;6.806;2023-10-19T10:26:11;19.10;45.20
4354;DHT22;11018;51.258;6.806;2023-10-19T10:28:38;19.00;46.00
4354;DHT22;11018;51.258;6.806;2023-10-19T10:31:20;19.20;46.10
4354;DHT22;11018;51.258;6.806;2023-10-19T10:33:54;19.30;44.60
4354;DHT22;11018;51.258;6.806;2023-10-19T10:36:20;19.50;44.60
4354;DHT22;11018;51.258;6.806;2023-10-19T10:38:48;19.50;44.30
4354;DHT22;11018;51.258;6.806;2023-10-19T10:41:24;19.60;43.70
4354;DHT22;11018;51.258;6.806;2023-10-19T10:43:58;19.60;43.70
4354;DHT22;11018;51.258;6.806;2023-10-19T10:46:27;19.70;43.10
4354;DHT22;11018;51.258;6.806;2023-10-19T10:48:54;19.80;42.20
4354;DHT22;11018;51.258;6.806;2023-10-19T10:51:22;19.80;41.40
4354;DHT22;11018;51.258;6.806;2023-10-19T10:53:49;20.00;40.30
4354;DHT22;11018;51.258;6.806;2023-10-19T10:56:16;20.10;39.00
4354;DHT22;11018;51.258;6.806;2023-10-19T10:58:42;20.20;38.80
4354;DHT22;11018;51.258;6.806;2023-10-19T11:01:09;20.20;37.80
4354;DHT22;11018;51.258;6.806;2023-10-19T11:03:39;20.10;37.80
4354;DHT22;11018;51.258;6.806;2023-10-19T11:06:06;20.10;36.50
4354;DHT22;11018;51.258;6.806;2023-10-19T11:08:33;20.10;37.10
4354;DHT22;11018;51.258;6.806;2023-10-19T11:11:09;19.90;37.50
4354;DHT22;11018;51.258;6.806;2023-10-19T11:13:38;19.80;37.90
4354;DHT22;11018;51.258;6.806;2023-10-19T11:16:06;19.70;38.90
4354;DHT22;11018;51.258;6.806;2023-10-19T11:18:37;19.80;39.30
4354;DHT22;11018;51.258;6.806;2023-10-19T11:21:09;19.60;39.00
4354;DHT22;11018;51.258;6.806;2023-10-19T11:23:55;19.50;39.70
4354;DHT22;11018;51.258;6.806;2023-10-19T11:26:23;19.30;40.30
4354;DHT22;11018;51.258;6.806;2023-10-19T11:29:01;19.30;40.00
4354;DHT22;11018;51.258;6.806;2023-10-19T11:31:29;19.20;40.40
4354;DHT22;11018;51.258;6.806;2023-10-19T11:34:03;19.20;40.90
4354;DHT22;11018;51.258;6.806;2023-10-19T11:36:29;19.10;41.60
4354;DHT22;11018;51.258;6.806;2023-10-19T11:38:55;19.30;40.90
4354;DHT22;11018;51.258;6.806;2023-10-19T11:41:21;19.40;41.20
4354;DHT22;11018;51.258;6.806;2023-10-19T11:43:48;19.60;41.30
4354;DHT22;11018;51.258;6.806;2023-10-19T11:46:15;19.90;39.00
4354;DHT22;11018;51.258;6.806;2023-10-19T11:48:43;20.30;38.70
4354;DHT22;11018;51.258;6.806;2023-10-19T11:51:09;20.70;37.90
4354;DHT22;11018;51.258;6.806;2023-10-19T11:53:37;20.90;36.80
4354;DHT22;11018;51.258;6.806;2023-10-19T11:56:05;21.00;35.40
4354;DHT22;11018;51.258;6.806;2023-10-19T11:58:34;21.10;35.80
4354;DHT22;11018;51.258;6.806;2023-10-19T12:01:01;21.20;34.60
4354;DHT22;11018;51.258;6.806;2023-10-19T12:03:29;21.10;34.10
4354;DHT22;11018;51.258;6.806;2023-10-19T12:05:55;21.00;34.50
4354;DHT22;11018;51.258;6.806;2023-10-19T12:08:21;20.90;35.40
4354;DHT22;11018;51.258;6.806;2023-10-19T12:10:49;20.90;35.70
4354;DHT22;11018;51.258;6.806;2023-10-19T12:13:14;21.20;35.80
4354;DHT22;11018;51.258;6.806;2023-10-19T12:15:41;21.30;34.20
4354;DHT22;11018;51.258;6.806;2023-10-19T12:18:07;21.30;34.50
4354;DHT22;11018;51.258;6.806;2023-10-19T12:20:33;21.20;35.10
4354;DHT22;11018;51.258;6.806;2023-10-19T12:23:01;21.00;35.90
4354;DHT22;11018;51.258;6.806;2023-10-19T12:25:26;21.00;35.30
4354;DHT22;11018;51.258;6.806;2023-10-19T12:27:56;21.20;34.00
4354;DHT22;11018;51.258;6.806;2023-10-19T12:30:22;21.10;34.60
4354;DHT22;11018;51.258;6.806;2023-10-19T12:32:52;21.00;34.90
4354;DHT22;11018;51.258;6.806;2023-10-19T12:35:17;20.90;36.40
4354;DHT22;11018;51.258;6.806;2023-10-19T12:37:50;20.60;36.70
4354;DHT22;11018;51.258;6.806;2023-10-19T12:40:18;20.60;37.00
4354;DHT22;11018;51.258;6.806;2023-10-19T12:43:04;20.60;37.20
4354;DHT22;11018;51.258;6.806;2023-10-19T12:45:33;20.40;38.10
4354;DHT22;11018;51.258;6.806;2023-10-19T12:48:03;20.30;38.40
4354;DHT22;11018;51.258;6.806;2023-10-19T12:50:30;20.20;39.20
4354;DHT22;11018;51.258;6.806;2023-10-19T12:52:56;19.90;41.00
4354;DHT22;11018;51.258;6.806;2023-10-19T12:55:22;19.80;41.40
4354;DHT22;11018;51.258;6.806;2023-10-19T12:57:50;19.60;42.20
4354;DHT22;11018;51.258;6.806;2023-10-19T13:00:16;19.50;43.50
4354;DHT22;11018;51.258;6.806;2023-10-19T13:02:52;19.50;43.00
4354;DHT22;11018;51.258;6.806;2023-10-19T13:05:32;19.50;42.80
4354;DHT22;11018;51.258;6.806;2023-10-19T13:07:58;19.50;43.30
4354;DHT22;11018;51.258;6.806;2023-10-19T13:10:28;19.30;43.70
4354;DHT22;11018;51.258;6.806;2023-10-19T13:12:54;19.10;44.50
4354;DHT22;11018;51.258;6.806;2023-10-19T13:15:20;19.00;44.80
4354;DHT22;11018;51.258;6.806;2023-10-19T13:17:48;18.90;45.60
4354;DHT22;11018;51.258;6.806;2023-10-19T13:20:13;18.90;46.20
4354;DHT22;11018;51.258;6.806;2023-10-19T13:22:44;18.90;46.70
4354;DHT22;11018;51.258;6.806;2023-10-19T13:25:10;19.00;46.50
4354;DHT22;11018;51.258;6.806;2023-10-19T13:27:39;19.00;48.10
4354;DHT22;11018;51.258;6.806;2023-10-19T13:30:07;18.90;50.50
4354;DHT22;11018;51.258;6.806;2023-10-19T13:32:36;19.00;50.20
4354;DHT22;11018;51.258;6.806;2023-10-19T13:35:02;19.00;50.30
4354;DHT22;11018;51.258;6.806;2023-10-19T13:37:27;19.00;51.60
4354;DHT22;11018;51.258;6.806;2023-10-19T13:39:53;18.90;53.30
4354;DHT22;11018;51.258;6.806;2023-10-19T13:42:20;18.80;54.30
4354;DHT22;11018;51.258;6.806;2023-10-19T13:44:47;18.90;54.20
4354;DHT22;11018;51.258;6.806;2023-10-19T13:47:13;18.80;53.90
4354;DHT22;11018;51.258;6.806;2023-10-19T13:49:38;18.80;56.20
4354;DHT22;11018;51.258;6.806;2023-10-19T13:52:04;18.80;56.00
4354;DHT22;11018;51.258;6.806;2023-10-19T13:54:30;19.00;54.50
4354;DHT22;11018;51.258;6.806;2023-10-19T13:56:56;19.10;53.80
4354;DHT22;11018;51.258;6.806;2023-10-19T13:59:21;19.20;53.20
4354;DHT22;11018;51.258;6.806;2023-10-19T14:01:49;19.20;53.70
4354;DHT22;11018;51.258;6.806;2023-10-19T14:04:15;19.10;55.50
4354;DHT22;11018;51.258;6.806;2023-10-19T14:06:41;19.10;54.80
4354;DHT22;11018;51.258;6.806;2023-10-19T14:09:08;19.00;55.90
4354;DHT22;11018;51.258;6.806;2023-10-19T14:11:38;19.00;56.60
4354;DHT22;11018;51.258;6.806;2023-10-19T14:14:03;18.90;57.50
4354;DHT22;11018;51.258;6.806;2023-10-19T14:16:29;18.80;58.10
4354;DHT22;11018;51.258;6.806;2023-10-19T14:18:56;18.80;59.00
4354;DHT22;11018;51.258;6.806;2023-10-19T14:21:21;18.70;61.10
4354;DHT22;11018;51.258;6.806;2023-10-19T14:23:50;18.60;60.40
4354;DHT22;11018;51.258;6.806;2023-10-19T14:26:16;18.60;61.00
4354;DHT22;11018;51.258;6.806;2023-10-19T14:28:42;18.50;64.50
4354;DHT22;11018;51.258;6.806;2023-10-19T14:31:08;18.40;65.10
4354;DHT22;11018;51.258;6.806;2023-10-19T14:33:34;18.50;65.50
4354;DHT22;11018;51.258;6.806;2023-10-19T14:36:01;18.40;66.00
4354;DHT22;11018;51.258;6.806;2023-10-19T14:38:28;18.40;66.90
4354;DHT22;11018;51.258;6.806;2023-10-19T14:40:53;18.30;68.80
4354;DHT22;11018;51.258;6.806;2023-10-19T14:43:19;18.20;69.40
4354;DHT22;11018;51.258;6.806;2023-10-19T14:45:45;18.20;72.10
4354;DHT22;11018;51.258;6.806;2023-10-19T14:48:10;18.00;72.60
4354;DHT22;11018;51.258;6.806;2023-10-19T14:50:36;17.90;75.80
4354;DHT22;11018;51.258;6.806;2023-10-19T14:53:03;17.80;77.60
4354;DHT22;11018;51.258;6.806;2023-10-19T14:55:29;17.90;76.20
4354;DHT22;11018;51.258;6.806;2023-10-19T14:57:55;17.90;75.80
4354;DHT22;11018;51.258;6.806;2023-10-19T15:00:26;17.80;77.70
4354;DHT22;11018;51.258;6.806;2023-10-19T15:02:57;17.90;78.30
4354;DHT22;11018;51.258;6.806;2023-10-19T15:05:27;17.90;78.60
4354;DHT22;11018;51.258;6.806;2023-10-19T15:07:54;17.80;79.50
4354;DHT22;11018;51.258;6.806;2023-10-19T15:10:26;17.80;78.60
4354;DHT22;11018;51.258;6.806;2023-10-19T15:12:54;17.80;78.90
4354;DHT22;11018;51.258;6.806;2023-10-19T15:15:21;17.90;77.80
4354;DHT22;11018;51.258;6.806;2023-10-19T15:17:48;18.00;77.40
4354;DHT22;11018;51.258;6.806;2023-10-19T15:20:16;17.90;78.00
4354;DHT22;11018;51.258;6.806;2023-10-19T15:22:42;17.90;77.70
4354;DHT22;11018;51.258;6.806;2023-10-19T15:25:09;18.00;76.90
4354;DHT22;11018;51.258;6.806;2023-10-19T15:27:41;18.00;74.50
4354;DHT22;11018;51.258;6.806;2023-10-19T15:30:08;18.00;73.80
4354;DHT22;11018;51.258;6.806;2023-10-19T15:32:35;17.90;75.60
4354;DHT22;11018;51.258;6.806;2023-10-19T15:35:01;17.90;74.00
4354;DHT22;11018;51.258;6.806;2023-10-19T15:37:27;17.90;76.10
4354;DHT22;11018;51.258;6.806;2023-10-19T15:39:53;17.90;75.10
4354;DHT22;11018;51.258;6.806;2023-10-19T15:42:19;17.80;75.30
4354;DHT22;11018;51.258;6.806;2023-10-19T15:44:47;17.90;75.30
4354;DHT22;11018;51.258;6.806;2023-10-19T15:47:14;17.80;75.70
4354;DHT22;11018;51.258;6.806;2023-10-19T15:49:51;17.80;77.70
4354;DHT22;11018;51.258;6.806;2023-10-19T15:52:21;17.80;76.80
4354;DHT22;11018;51.258;6.806;2023-10-19T15:54:47;17.70;77.80
4354;DHT22;11018;51.258;6.806;2023-10-19T15:57:13;17.80;76.90
4354;DHT22;11018;51.258;6.806;2023-10-19T15:59:43;17.70;78.10
4354;DHT22;11018;51.258;6.806;2023-10-19T16:02:09;17.70;77.90
4354;DHT22;11018;51.258;6.806;2023-10-19T16:04:36;17.60;79.50
4354;DHT22;11018;51.258;6.806;2023-10-19T16:07:02;17.40;83.30